Time;durP1;ratioP1;P1;durP2;ratioP2;P2;SDS_P1;SDS_P2;PMS_P1;PMS_P2;Temp;Humidity;BMP_temperature;BMP_pressure;BME280_temperature;BME280_humidity;BME280_pressure;Samples;Min_cycle;Max_cycle;Signal;HPM_P1;HPM_P2
2022/08/11 00:02:28;;;;;;;;;;;;;;;24.28;36.46;100568.53;4977437;28;955;-43
2022/08/11 00:04:53;;;;;;;;;;;;;;;22.14;45.01;100560.97;4971908;28;1023;-43
2022/08/11 00:07:19;;;;;;;;;;;;;;;23.88;38.91;100571.00;4977882;28;1023;-42
2022/08/11 00:09:44;;;;;;;;;;;;;;;25.06;36.84;100573.50;4976983;28;1423;-42
2022/08/11 00:12:13;;;;;;;;;;;;;;;25.75;37.23;100573.88;4975732;28;1918;-41
2022/08/11 00:14:40;;;;;;;;;;;;;;;25.77;35.10;100571.84;4977834;28;1054;-42
2022/08/11 00:17:06;;;;;;;;;;;;;;;25.28;37.43;100579.13;4970066;28;1013;-43
2022/08/11 00:19:36;;;;;;;;;;;;;;;22.08;46.20;100565.13;4977423;28;979;-42
2022/08/11 00:22:02;;;;;;;;;;;;;;;23.80;38.97;100569.16;4977331;28;983;-43
2022/08/11 00:24:33;;;;;;;;;;;;;;;24.41;38.69;100559.97;4972248;28;1114;-43
2022/08/11 00:26:59;;;;;;;;;;;;;;;25.62;36.41;100562.81;4977472;28;1007;-43
2022/08/11 00:29:25;;;;;;;;;;;;;;;22.69;41.94;100571.69;4974814;28;1165;-42
2022/08/11 00:31:53;;;;;;;;;;;;;;;22.95;40.88;100565.44;4976985;28;1982;-40
2022/08/11 00:34:28;;;;;;;;;;;;;;;24.03;39.54;100564.97;4976321;28;1519;-38
2022/08/11 00:37:07;;;;;;;;;;;;;;;24.78;35.94;100565.78;4975704;28;1237;-42
2022/08/11 00:39:34;;;;;;;;;;;;;;;24.94;37.06;100562.25;4975506;28;944;-42
2022/08/11 00:42:02;;;;;;;;;;;;;;;25.88;35.34;100567.03;4974085;28;1055;-42
2022/08/11 00:44:28;;;;;;;;;;;;;;;22.32;43.10;100565.50;4977381;28;1031;-41
2022/08/11 00:46:58;;;;;;;;;;;;;;;23.26;42.41;100564.06;4977036;28;1130;-43
2022/08/11 00:49:36;;;;;;;;;;;;;;;24.60;41.37;100566.00;4977050;28;1170;-43
2022/08/11 00:52:20;;;;;;;;;;;;;;;21.38;47.07;100563.88;4977373;28;1977;-42
2022/08/11 00:55:18;;;;;;;;;;;;;;;23.66;42.50;100584.03;4975400;28;1315;-42
2022/08/11 00:58:01;;;;;;;;;;;;;;;25.14;38.86;100586.06;4968505;28;1099;-42
2022/08/11 01:00:31;;;;;;;;;;;;;;;25.17;40.80;100579.50;4962196;28;987;-42
2022/08/11 01:03:09;;;;;;;;;;;;;;;25.80;37.59;100600.28;4980916;28;912;-42
2022/08/11 01:05:44;;;;;;;;;;;;;;;24.24;38.31;100602.13;4974144;28;1027;-42
2022/08/11 01:08:10;;;;;;;;;;;;;;;22.01;48.19;100596.19;4974087;28;1058;-42
2022/08/11 01:10:41;;;;;;;;;;;;;;;24.14;42.10;100596.06;4980446;28;1984;-42
2022/08/11 01:13:07;;;;;;;;;;;;;;;25.27;39.30;100590.91;4975527;28;1093;-42
2022/08/11 01:15:51;;;;;;;;;;;;;;;25.50;40.77;100589.28;4980465;28;1066;-42
2022/08/11 01:18:28;;;;;;;;;;;;;;;21.70;47.30;100591.16;4980603;28;1059;-42
2022/08/11 01:20:57;;;;;;;;;;;;;;;23.28;44.59;100595.13;4971299;28;1008;-42
2022/08/11 01:23:41;;;;;;;;;;;;;;;24.41;44.03;100584.16;4975462;28;1146;-42
2022/08/11 01:26:24;;;;;;;;;;;;;;;21.43;51.14;100590.16;4979982;28;913;-43
2022/08/11 01:28:56;;;;;;;;;;;;;;;23.80;43.67;100587.97;4980097;28;1031;-42
2022/08/11 01:31:40;;;;;;;;;;;;;;;24.46;40.59;100583.66;4980229;28;1969;-40
2022/08/11 01:34:05;;;;;;;;;;;;;;;21.75;50.33;100580.84;4980240;28;1114;-42
2022/08/11 01:36:31;;;;;;;;;;;;;;;24.23;42.49;100588.88;4979733;28;998;-42
2022/08/11 01:39:02;;;;;;;;;;;;;;;24.92;41.28;100579.59;4977807;28;1243;-42
2022/08/11 01:44:36;;;;;;;;;;;;;;;25.05;42.32;100560.19;4980177;28;1051;-42
2022/08/11 01:44:36;;;;;;;;;;;;;;;21.67;49.55;100556.66;4976453;28;1023;-42
2022/08/11 01:47:01;;;;;;;;;;;;;;;23.51;43.86;100556.97;4977345;28;944;-42
2022/08/11 01:49:31;;;;;;;;;;;;;;;24.29;42.53;100543.34;4979783;28;1047;-43
2022/08/11 01:51:57;;;;;;;;;;;;;;;25.47;38.85;100541.16;4979729;28;1926;-42
2022/08/11 01:54:24;;;;;;;;;;;;;;;22.36;45.73;100537.38;4980292;28;1074;-42
2022/08/11 01:56:57;;;;;;;;;;;;;;;22.57;46.85;100528.97;4969091;28;1035;-42
2022/08/11 01:59:27;;;;;;;;;;;;;;;24.17;44.23;100533.94;4972115;28;1090;-42
2022/08/11 02:02:15;;;;;;;;;;;;;;;25.26;39.34;100530.00;4979620;28;1030;-43
2022/08/11 02:05:05;;;;;;;;;;;;;;;24.98;41.02;100545.75;4978459;28;1100;-42
2022/08/11 02:07:30;;;;;;;;;;;;;;;21.73;51.41;100548.03;4975022;28;991;-41
2022/08/11 02:12:53;;;;;;;;;;;;;;;25.22;39.79;100552.06;4978067;28;1147;-42
2022/08/11 02:15:38;;;;;;;;;;;;;;;24.95;42.37;100552.34;4972086;28;928;-42
2022/08/11 02:18:12;;;;;;;;;;;;;;;21.67;50.28;100554.81;4977701;28;1138;-42
2022/08/11 02:23:39;;;;;;;;;;;;;;;24.74;40.80;100553.69;4964555;28;947;-42
2022/08/11 02:26:07;;;;;;;;;;;;;;;25.17;41.84;100553.41;4974899;28;1467;-41
2022/08/11 02:28:45;;;;;;;;;;;;;;;21.70;46.71;100556.34;4979048;28;1101;-41
2022/08/11 02:34:21;;;;;;;;;;;;;;;24.73;40.78;100567.31;4975114;28;1267;-42
2022/08/11 02:36:59;;;;;;;;;;;;;;;25.45;40.30;100562.91;4978972;28;979;-42
2022/08/11 02:39:27;;;;;;;;;;;;;;;25.72;38.52;100563.47;4973296;28;987;-42
2022/08/11 02:42:38;;;;;;;;;;;;;;;25.67;38.62;100566.66;4976154;28;1087;-41
2022/08/11 02:45:11;;;;;;;;;;;;;;;25.53;40.41;100560.16;4970819;28;1442;-43
2022/08/11 02:50:41;;;;;;;;;;;;;;;23.50;43.97;100566.06;4977487;28;1914;-42
2022/08/11 02:53:15;;;;;;;;;;;;;;;24.62;42.05;100564.00;4977828;28;1103;-41
2022/08/11 02:55:44;;;;;;;;;;;;;;;25.56;39.42;100578.66;4961254;28;1003;-44
2022/08/11 02:58:10;;;;;;;;;;;;;;;25.85;39.32;100586.25;4978815;28;1054;-43
2022/08/11 03:00:56;;;;;;;;;;;;;;;24.89;41.37;100582.59;4972289;28;1508;-44
2022/08/11 03:03:25;;;;;;;;;;;;;;;24.90;41.08;100578.88;4971809;28;888;-45
2022/08/11 03:06:11;;;;;;;;;;;;;;;24.30;40.63;100577.28;4973108;28;1372;-46
2022/08/11 03:08:39;;;;;;;;;;;;;;;23.58;45.02;100571.44;4970518;28;1165;-45
2022/08/11 03:17:07;;;;;;;;;;;;;;;25.00;41.64;100581.41;4975439;28;1160;-38
2022/08/11 03:19:40;;;;;;;;;;;;;;;25.09;42.12;100566.09;4978409;28;825;-39
2022/08/11 03:22:05;;;;;;;;;;;;;;;23.66;43.30;100573.31;4969860;28;1117;-40
2022/08/11 03:24:34;;;;;;;;;;;;;;;23.87;44.13;100580.09;4978515;28;1059;-39
2022/08/11 03:26:59;;;;;;;;;;;;;;;24.55;43.08;100576.44;4972634;28;1410;-41
2022/08/11 03:29:28;;;;;;;;;;;;;;;24.96;41.71;100578.22;4976356;28;1044;-40
2022/08/11 03:31:56;;;;;;;;;;;;;;;25.14;41.54;100575.31;4978149;28;1902;-40
2022/08/11 03:34:21;;;;;;;;;;;;;;;23.60;46.64;100582.88;4978291;28;1047;-39
2022/08/11 03:37:05;;;;;;;;;;;;;;;24.27;43.14;100582.16;4970748;28;1165;-39
2022/08/11 03:39:49;;;;;;;;;;;;;;;24.88;41.98;100581.75;4976283;28;837;-38
2022/08/11 03:42:17;;;;;;;;;;;;;;;24.95;41.75;100587.31;4978092;28;1209;-39
2022/08/11 03:44:48;;;;;;;;;;;;;;;25.25;40.79;100590.25;4977373;28;1199;-38
2022/08/11 03:47:32;;;;;;;;;;;;;;;24.85;40.94;100592.84;4977212;28;1125;-39
2022/08/11 03:49:57;;;;;;;;;;;;;;;24.13;44.28;100583.63;4974285;28;1026;-38
2022/08/11 03:52:35;;;;;;;;;;;;;;;24.70;42.46;100585.50;4977495;28;1898;-40
2022/08/11 03:55:33;;;;;;;;;;;;;;;24.75;42.36;100598.44;4977831;28;1007;-42
2022/08/11 03:58:17;;;;;;;;;;;;;;;25.74;40.19;100582.13;4933310;28;1207;-43
2022/08/11 04:01:00;;;;;;;;;;;;;;;25.97;40.45;100576.75;4976523;28;1262;-42
2022/08/11 04:03:26;;;;;;;;;;;;;;;22.18;47.19;100573.09;4973930;28;850;-42
2022/08/11 04:06:26;;;;;;;;;;;;;;;23.17;47.08;100568.59;4977206;28;1169;-41
2022/08/11 04:09:10;;;;;;;;;;;;;;;25.01;41.62;100577.69;4912053;29;1161;-42
2022/08/11 04:11:36;;;;;;;;;;;;;;;24.93;41.86;100584.81;4966212;28;1907;-39
2022/08/11 04:16:57;;;;;;;;;;;;;;;24.96;43.01;100588.97;4971906;28;2652;-41
2022/08/11 04:19:37;;;;;;;;;;;;;;;25.78;40.34;100586.13;4975659;28;1853;-40
2022/08/11 04:22:06;;;;;;;;;;;;;;;23.38;44.19;100584.25;4961798;28;2028;-40
2022/08/11 04:24:31;;;;;;;;;;;;;;;23.91;44.36;100581.41;4977873;28;2112;-42
2022/08/11 04:26:56;;;;;;;;;;;;;;;25.23;41.70;100586.88;4978928;28;1912;-41
2022/08/11 04:29:40;;;;;;;;;;;;;;;25.86;40.24;100585.25;4980310;28;1764;-41
2022/08/11 04:32:08;;;;;;;;;;;;;;;26.26;39.35;100588.66;4981880;28;1894;-41
2022/08/11 04:34:40;;;;;;;;;;;;;;;26.38;39.22;100585.56;4980736;28;1221;-41
2022/08/11 04:37:33;;;;;;;;;;;;;;;26.48;39.13;100588.84;4980771;28;1265;-41
2022/08/11 04:40:04;;;;;;;;;;;;;;;26.43;39.38;100582.31;4979473;28;991;-42
2022/08/11 04:45:35;;;;;;;;;;;;;;;26.49;39.27;100587.00;4979860;28;1163;-41
2022/08/11 05:02:40;;;;;;;;;;;;;;;26.67;39.54;100569.63;4979276;28;1067;-41
2022/08/11 05:05:32;;;;;;;;;;;;;;;26.72;38.54;100568.06;4980262;28;1162;-41
2022/08/11 05:08:09;;;;;;;;;;;;;;;26.72;39.79;100570.75;4965405;28;1122;-41
2022/08/11 05:10:47;;;;;;;;;;;;;;;26.75;39.40;100567.69;4979787;28;1902;-40
2022/08/11 05:35:30;;;;;;;;;;;;;;;27.14;37.86;100603.53;4963273;28;1059;-41
2022/08/11 05:57:08;;;;;;;;;;;;;;;27.44;38.21;100618.91;4979438;28;1012;-40
2022/08/11 05:59:34;;;;;;;;;;;;;;;27.51;37.89;100610.84;4974715;28;1011;-39
2022/08/11 06:02:03;;;;;;;;;;;;;;;27.56;38.08;100615.72;4978663;28;1095;-38
2022/08/11 06:04:29;;;;;;;;;;;;;;;27.64;37.49;100626.41;4969316;28;974;-39
2022/08/11 06:06:59;;;;;;;;;;;;;;;27.67;37.93;100631.44;4979933;28;1047;-39
2022/08/11 06:09:31;;;;;;;;;;;;;;;27.69;37.56;100623.16;4975422;28;1165;-41
2022/08/11 06:11:58;;;;;;;;;;;;;;;27.72;37.45;100615.50;4979588;28;1977;-42
2022/08/11 06:14:23;;;;;;;;;;;;;;;27.84;37.40;100623.94;4979743;28;1162;-40
2022/08/11 06:16:49;;;;;;;;;;;;;;;28.01;37.69;100617.47;4979552;28;891;-39
2022/08/11 06:19:15;;;;;;;;;;;;;;;28.11;37.64;100626.94;4979287;28;1027;-40
2022/08/11 06:21:43;;;;;;;;;;;;;;;28.15;37.03;100613.00;4979586;28;1038;-43
2022/08/11 06:24:12;;;;;;;;;;;;;;;28.13;36.69;100612.41;4979398;28;983;-44
2022/08/11 06:26:38;;;;;;;;;;;;;;;28.16;36.86;100614.72;4979057;28;987;-43
2022/08/11 06:29:03;;;;;;;;;;;;;;;28.15;36.74;100616.56;4961750;28;1100;-41
2022/08/11 06:31:29;;;;;;;;;;;;;;;28.07;36.92;100611.28;4972822;28;1952;-42
2022/08/11 06:33:55;;;;;;;;;;;;;;;28.08;36.83;100610.25;4973842;28;1090;-40
2022/08/11 06:36:23;;;;;;;;;;;;;;;28.10;36.58;100610.91;4979062;28;1083;-41
2022/08/11 06:38:48;;;;;;;;;;;;;;;28.17;36.79;100600.16;4977610;28;1063;-40
2022/08/11 06:41:30;;;;;;;;;;;;;;;28.20;36.88;100606.00;4977630;28;1305;-40
2022/08/11 06:44:05;;;;;;;;;;;;;;;28.15;36.76;100607.59;4975839;28;1206;-41
2022/08/11 06:46:37;;;;;;;;;;;;;;;28.11;36.87;100610.69;4978326;28;1039;-42
2022/08/11 06:49:03;;;;;;;;;;;;;;;28.15;36.96;100610.31;4978949;28;1688;-42
2022/08/11 06:51:29;;;;;;;;;;;;;;;28.22;36.95;100617.47;4975485;28;1903;-40
2022/08/11 06:53:56;;;;;;;;;;;;;;;28.26;36.64;100608.97;4978362;28;1107;-41
2022/08/11 07:01:56;;;;;;;;;;;;;;;28.32;36.71;100625.25;4963532;28;1197;-41
2022/08/11 07:04:43;;;;;;;;;;;;;;;28.47;36.62;100617.09;4977717;28;1245;-44
2022/08/11 07:15:48;;;;;;;;;;;;;;;28.40;36.88;100627.00;4976083;28;1337;-42
2022/08/11 07:29:43;;;;;;;;;;;;;;;28.50;34.55;100620.41;4971848;28;1055;-40
2022/08/11 07:32:11;;;;;;;;;;;;;;;28.56;35.33;100625.06;4977436;28;1914;-39
2022/08/11 07:34:37;;;;;;;;;;;;;;;28.57;35.67;100629.44;4970305;28;2847;-38
2022/08/11 07:37:03;;;;;;;;;;;;;;;28.57;35.64;100630.28;4960967;28;1770;-39
2022/08/11 07:39:32;;;;;;;;;;;;;;;28.62;35.73;100623.44;4981999;28;2009;-39
2022/08/11 07:41:57;;;;;;;;;;;;;;;28.61;35.52;100614.50;4963794;28;1781;-39
2022/08/11 07:44:24;;;;;;;;;;;;;;;28.60;35.75;100634.47;4961118;28;2121;-39
2022/08/11 07:52:32;;;;;;;;;;;;;;;28.76;35.75;100627.91;4971487;28;1906;-40
2022/08/11 07:54:58;;;;;;;;;;;;;;;28.69;35.79;100632.44;4975763;28;1102;-40
2022/08/11 08:19:16;;;;;;;;;;;;;;;28.79;35.97;100613.16;4961045;28;1800;-40
2022/08/11 08:21:41;;;;;;;;;;;;;;;28.79;35.97;100599.63;4959432;28;1091;-41
2022/08/11 08:24:06;;;;;;;;;;;;;;;28.93;35.96;100641.13;4975938;28;1095;-39
2022/08/11 08:32:00;;;;;;;;;;;;;;;28.94;35.13;100592.22;4962280;28;1902;-38
2022/08/11 08:34:25;;;;;;;;;;;;;;;28.84;35.38;100587.16;4976645;28;936;-38
2022/08/11 08:36:50;;;;;;;;;;;;;;;28.76;35.37;100587.31;4959091;28;1257;-38
2022/08/11 08:39:20;;;;;;;;;;;;;;;28.74;36.02;100592.09;4976798;28;1289;-40
2022/08/11 08:41:45;;;;;;;;;;;;;;;28.69;36.08;100600.81;4976629;28;1206;-39
2022/08/11 08:44:11;;;;;;;;;;;;;;;28.69;35.96;100595.41;4972578;28;1244;-39
2022/08/11 08:46:40;;;;;;;;;;;;;;;28.68;35.72;100592.88;4958847;28;1102;-39
2022/08/11 08:49:05;;;;;;;;;;;;;;;28.72;35.40;100584.19;4975629;28;2341;-37
2022/08/11 08:51:34;;;;;;;;;;;;;;;28.71;36.05;100582.50;4975198;28;1956;-38
2022/08/11 08:54:02;;;;;;;;;;;;;;;28.67;35.96;100575.81;4972999;28;1261;-38
2022/08/11 08:56:27;;;;;;;;;;;;;;;28.71;36.03;100573.56;4976588;28;1233;-38
2022/08/11 08:58:52;;;;;;;;;;;;;;;28.75;35.59;100571.25;4976761;28;1241;-39
2022/08/11 09:01:19;;;;;;;;;;;;;;;28.74;35.97;100581.28;4976481;28;1209;-39
2022/08/11 09:03:44;;;;;;;;;;;;;;;28.86;36.24;100576.16;4976526;28;1194;-39
2022/08/11 09:06:09;;;;;;;;;;;;;;;28.79;35.89;100573.41;4976670;28;1257;-39
2022/08/11 09:08:35;;;;;;;;;;;;;;;28.76;36.16;100565.66;4976179;28;1011;-42
2022/08/11 09:13:44;;;;;;;;;;;;;;;28.68;36.11;100563.94;4960295;28;1038;-39
2022/08/11 09:16:10;;;;;;;;;;;;;;;28.72;36.05;100573.34;4959620;29;1082;-39
2022/08/11 09:18:35;;;;;;;;;;;;;;;28.81;36.36;100555.06;4956840;28;2396;-39
2022/08/11 09:21:01;;;;;;;;;;;;;;;28.89;36.06;100566.78;4960388;29;1027;-40
2022/08/11 09:28:54;;;;;;;;;;;;;;;28.87;36.10;100566.97;4959461;29;986;-39
2022/08/11 09:31:21;;;;;;;;;;;;;;;28.72;35.09;100559.81;4959103;29;1910;-40
2022/08/11 09:33:46;;;;;;;;;;;;;;;27.90;33.92;100559.31;4967739;28;1006;-41
2022/08/11 09:41:41;;;;;;;;;;;;;;;28.45;34.06;100565.03;4955255;29;889;-39
2022/08/11 09:46:50;;;;;;;;;;;;;;;28.78;34.62;100563.59;4960225;29;935;-38
2022/08/11 09:49:17;;;;;;;;;;;;;;;29.03;34.33;100556.91;4965244;28;2342;-39
2022/08/11 09:51:42;;;;;;;;;;;;;;;28.85;34.65;100548.22;4959487;29;1906;-38
2022/08/11 09:54:07;;;;;;;;;;;;;;;28.85;34.71;100539.25;4965442;28;1042;-38
2022/08/11 09:59:17;;;;;;;;;;;;;;;29.23;34.64;100543.41;4959074;29;998;-37
2022/08/11 10:01:43;;;;;;;;;;;;;;;29.30;34.90;100536.16;4970601;28;1144;-39
2022/08/11 10:04:16;;;;;;;;;;;;;;;29.36;35.21;100545.34;4954388;28;1089;-34
2022/08/11 10:07:00;;;;;;;;;;;;;;;29.28;35.14;100553.66;4958575;28;1035;-37
2022/08/11 10:09:26;;;;;;;;;;;;;;;29.31;35.60;100554.06;4958020;29;1162;-40
2022/08/11 10:11:52;;;;;;;;;;;;;;;29.36;35.11;100558.06;4959593;28;1914;-40
2022/08/11 10:17:05;;;;;;;;;;;;;;;29.18;36.05;100554.84;4959984;29;1082;-43
2022/08/11 10:19:30;;;;;;;;;;;;;;;29.20;35.75;100546.53;4958138;29;1784;-47
2022/08/11 10:27:24;;;;;;;;;;;;;;;29.51;35.76;100549.78;4952403;29;983;-42
2022/08/11 10:35:17;;;;;;;;;;;;;;;29.40;35.95;100538.47;4946808;29;888;-46
2022/08/11 10:37:43;;;;;;;;;;;;;;;29.49;36.08;100541.84;4948108;29;1046;-44
2022/08/11 10:40:10;;;;;;;;;;;;;;;29.57;35.65;100544.38;4958129;29;1161;-44
2022/08/11 10:48:03;;;;;;;;;;;;;;;29.62;35.10;100551.91;4958153;29;1019;-46
2022/08/11 10:58:49;;;;;;;;;;;;;;;29.75;35.19;100542.13;4946349;29;924;-46
2022/08/11 11:01:16;;;;;;;;;;;;;;;29.81;35.13;100541.31;4959055;28;1071;-43
2022/08/11 11:03:41;;;;;;;;;;;;;;;29.75;34.94;100534.84;4957784;29;1144;-46
2022/08/11 11:06:25;;;;;;;;;;;;;;;29.73;34.83;100544.22;4951068;29;1067;-45
2022/08/11 11:08:52;;;;;;;;;;;;;;;29.71;35.02;100533.59;4957066;29;952;-43
2022/08/11 11:11:17;;;;;;;;;;;;;;;29.75;34.94;100539.41;4955404;28;1961;-46
2022/08/11 11:19:11;;;;;;;;;;;;;;;29.70;34.87;100527.31;4956747;29;1797;-40
2022/08/11 11:21:37;;;;;;;;;;;;;;;29.77;34.65;100516.50;4957146;28;1260;-40
2022/08/11 11:24:12;;;;;;;;;;;;;;;29.75;34.84;100524.00;4958418;28;1229;-37
2022/08/11 11:26:44;;;;;;;;;;;;;;;29.78;34.76;100520.84;4956425;28;1171;-40
2022/08/11 11:29:24;;;;;;;;;;;;;;;29.74;35.21;100525.03;4955751;29;1167;-42
2022/08/11 11:32:01;;;;;;;;;;;;;;;29.66;35.57;100525.25;4957995;28;1947;-44
2022/08/11 11:34:35;;;;;;;;;;;;;;;29.63;35.36;100525.66;4957816;29;1237;-41
2022/08/11 11:37:01;;;;;;;;;;;;;;;29.70;35.09;100530.03;4957566;28;1283;-41
2022/08/11 11:39:26;;;;;;;;;;;;;;;29.73;35.04;100523.34;4956244;28;1255;-40
2022/08/11 11:41:54;;;;;;;;;;;;;;;29.77;35.20;100523.78;4958288;28;1161;-40
2022/08/11 11:44:21;;;;;;;;;;;;;;;29.83;35.03;100522.94;4957465;29;1035;-43
2022/08/11 11:46:47;;;;;;;;;;;;;;;29.89;34.91;100518.59;4960417;28;1015;-39
2022/08/11 11:49:12;;;;;;;;;;;;;;;29.92;34.80;100507.31;4957687;28;2536;-40
2022/08/11 11:51:37;;;;;;;;;;;;;;;29.84;34.94;100515.66;4958332;28;1952;-43
2022/08/11 11:54:03;;;;;;;;;;;;;;;29.88;34.67;100519.63;4956429;29;1083;-43
2022/08/11 11:56:29;;;;;;;;;;;;;;;29.89;34.97;100508.56;4952761;28;1155;-42
2022/08/11 12:01:38;;;;;;;;;;;;;;;29.79;35.05;100514.41;4954383;28;785;-43
2022/08/11 12:04:07;;;;;;;;;;;;;;;29.78;35.07;100515.44;4961953;28;829;-42
2022/08/11 12:06:32;;;;;;;;;;;;;;;29.87;35.24;100517.94;4957031;28;978;-44
2022/08/11 12:08:57;;;;;;;;;;;;;;;29.89;34.97;100516.72;4957859;28;998;-42
2022/08/11 12:14:08;;;;;;;;;;;;;;;29.78;34.68;100509.19;4977972;28;817;-41
2022/08/11 12:16:43;;;;;;;;;;;;;;;29.82;35.03;100514.00;4975473;28;859;-42
2022/08/11 12:19:12;;;;;;;;;;;;;;;29.89;34.87;100518.59;4973852;28;1904;-42
2022/08/11 12:27:19;;;;;;;;;;;;;;;29.93;35.04;100520.66;4973267;28;1253;-42
2022/08/11 12:27:22;;;;;;;;;;;;;;;29.96;34.75;100510.44;4975546;28;885;-42
2022/08/11 12:29:51;;;;;;;;;;;;;;;29.96;34.60;100519.44;4972815;28;1000;-42
2022/08/11 12:32:20;;;;;;;;;;;;;;;29.94;34.68;100525.06;4977062;28;1984;-44
2022/08/11 12:34:45;;;;;;;;;;;;;;;29.97;34.67;100523.81;4976725;28;1019;-41
2022/08/11 12:37:12;;;;;;;;;;;;;;;29.97;34.81;100522.97;4976758;28;1095;-41
2022/08/11 12:53:25;;;;;;;;;;;;;;;29.86;35.07;100525.28;4980722;28;893;-41
2022/08/11 12:58:34;;;;;;;;;;;;;;;30.03;35.08;100525.66;4971496;28;949;-41
2022/08/11 13:06:27;;;;;;;;;;;;;;;30.07;34.54;100531.53;4980432;28;1074;-40
2022/08/11 13:08:52;;;;;;;;;;;;;;;30.10;34.39;100516.69;4979443;28;1039;-41
2022/08/11 13:14:02;;;;;;;;;;;;;;;30.22;34.25;100517.78;4980390;28;1038;-40
2022/08/11 13:16:28;;;;;;;;;;;;;;;30.22;34.42;100514.22;4977606;28;1039;-43
2022/08/11 13:18:54;;;;;;;;;;;;;;;30.12;34.43;100518.16;4977368;28;2490;-41
2022/08/11 13:21:20;;;;;;;;;;;;;;;30.02;32.37;100515.88;4962712;28;1277;-41
2022/08/11 13:23:45;;;;;;;;;;;;;;;30.05;33.50;100514.59;4978643;28;1189;-39
2022/08/11 13:26:10;;;;;;;;;;;;;;;30.05;33.45;100510.03;4978651;28;1364;-41
2022/08/11 13:28:36;;;;;;;;;;;;;;;29.98;33.38;100503.75;4980365;28;1082;-40
2022/08/11 13:31:10;;;;;;;;;;;;;;;29.96;33.21;100503.16;4962671;28;1902;-40
2022/08/11 13:33:43;;;;;;;;;;;;;;;29.97;33.32;100514.81;4964122;28;1196;-41
2022/08/11 13:36:09;;;;;;;;;;;;;;;29.98;33.84;100511.09;4980004;28;1294;-40
2022/08/11 13:38:34;;;;;;;;;;;;;;;30.00;33.90;100519.81;4979985;28;1233;-42
2022/08/11 13:40:59;;;;;;;;;;;;;;;29.93;33.68;100512.53;4979603;28;1222;-40
2022/08/11 13:43:24;;;;;;;;;;;;;;;29.89;34.05;100507.72;4978663;28;1303;-40
2022/08/11 13:46:17;;;;;;;;;;;;;;;29.90;33.61;100515.66;4979447;28;1177;-42
2022/08/11 13:48:36;;;;;;;;;;;;;;;29.87;33.81;100499.81;4965067;28;1311;-43
2022/08/11 13:53:44;;;;;;;;;;;;;;;29.78;34.32;100507.31;4964891;28;1082;-41
2022/08/11 13:56:10;;;;;;;;;;;;;;;29.85;34.24;100511.88;4962389;28;1356;-40
2022/08/11 13:58:35;;;;;;;;;;;;;;;29.88;34.14;100500.66;4962391;28;1268;-40
2022/08/11 14:01:00;;;;;;;;;;;;;;;29.88;33.85;100516.94;4961132;28;1027;-41
2022/08/11 14:03:26;;;;;;;;;;;;;;;29.91;33.90;100517.31;4962663;28;1007;-38
2022/08/11 14:05:52;;;;;;;;;;;;;;;29.96;33.75;100513.16;4979749;28;1127;-40
2022/08/11 14:08:27;;;;;;;;;;;;;;;29.90;33.90;100522.94;4965392;28;1346;-39
2022/08/11 14:13:40;;;;;;;;;;;;;;;29.80;33.80;100521.50;4977032;28;861;-40
2022/08/11 14:16:07;;;;;;;;;;;;;;;29.61;34.21;100506.88;4976350;28;1007;-40
2022/08/11 14:18:32;;;;;;;;;;;;;;;29.54;34.62;100514.13;4978652;28;1149;-40
2022/08/11 14:23:46;;;;;;;;;;;;;;;29.37;34.88;100511.78;4972239;28;794;-42
2022/08/11 14:26:22;;;;;;;;;;;;;;;29.33;35.41;100503.25;4977881;28;1133;-43
2022/08/11 14:28:48;;;;;;;;;;;;;;;29.44;35.06;100515.38;4979239;28;996;-42
2022/08/11 14:31:13;;;;;;;;;;;;;;;29.43;34.98;100504.72;4978878;28;1967;-41
2022/08/11 14:33:39;;;;;;;;;;;;;;;29.42;34.23;100506.59;4979001;28;1169;-40
2022/08/11 14:36:05;;;;;;;;;;;;;;;29.38;34.23;100510.75;4961576;28;1098;-41
2022/08/11 14:38:32;;;;;;;;;;;;;;;29.35;34.63;100511.16;4975013;28;1475;-41
2022/08/11 14:49:09;;;;;;;;;;;;;;;29.35;34.74;100524.69;4963278;28;1043;-41
2022/08/11 14:51:34;;;;;;;;;;;;;;;29.34;35.12;100523.84;4961419;28;1898;-39
2022/08/11 14:56:44;;;;;;;;;;;;;;;29.30;34.72;100519.06;4978269;28;1078;-40
2022/08/11 14:59:09;;;;;;;;;;;;;;;29.32;34.55;100508.84;4978155;28;1257;-41
2022/08/11 15:04:26;;;;;;;;;;;;;;;29.23;34.81;100504.69;4949904;28;1333;-41
2022/08/11 15:06:52;;;;;;;;;;;;;;;29.25;34.86;100510.69;4960767;28;1289;-42
2022/08/11 15:09:17;;;;;;;;;;;;;;;29.24;34.10;100511.75;4960457;28;1277;-42
2022/08/11 15:17:11;;;;;;;;;;;;;;;29.28;34.73;100505.72;4963062;28;1122;-42
2022/08/11 15:24:17;;;;;;;;;;;;;;;29.28;34.27;100500.31;4960721;28;1118;-42
2022/08/11 15:25:08;;;;;;;;;;;;;;;29.24;34.68;100501.75;4962650;28;1186;-41
2022/08/11 15:38:35;;;;;;;;;;;;;;;29.33;34.87;100505.94;4965432;28;2022;-40
2022/08/11 15:46:30;;;;;;;;;;;;;;;29.28;34.36;100508.44;4976843;28;1958;-40
2022/08/11 15:48:57;;;;;;;;;;;;;;;29.31;34.11;100502.59;4961771;28;1846;-40
2022/08/11 15:51:35;;;;;;;;;;;;;;;29.26;34.32;100507.78;4962257;28;1970;-41
2022/08/11 15:54:30;;;;;;;;;;;;;;;29.42;33.32;100516.59;4971752;28;1023;-38
2022/08/11 15:56:56;;;;;;;;;;;;;;;29.55;33.81;100513.06;4969015;28;1151;-37
2022/08/11 16:04:49;;;;;;;;;;;;;;;29.51;34.52;100515.34;4974725;28;1130;-38
2022/08/11 16:07:15;;;;;;;;;;;;;;;27.60;35.17;100515.16;4959096;28;991;-38
2022/08/11 16:09:45;;;;;;;;;;;;;;;26.02;34.70;100495.34;4976998;28;1106;-38
2022/08/11 16:12:11;;;;;;;;;;;;;;;22.25;45.97;100509.00;4976800;28;1910;-37
2022/08/11 16:17:23;;;;;;;;;;;;;;;21.20;51.60;100507.63;4967579;28;885;-37
2022/08/11 16:19:49;;;;;;;;;;;;;;;21.05;52.54;100502.78;4977196;28;1757;-37
2022/08/11 16:22:16;;;;;;;;;;;;;;;20.80;53.88;100505.94;4973144;28;1130;-36
2022/08/11 16:24:43;;;;;;;;;;;;;;;20.73;54.08;100499.50;4976052;28;983;-37
2022/08/11 16:27:11;;;;;;;;;;;;;;;20.55;54.96;100510.94;4977158;28;1189;-36
2022/08/11 16:29:37;;;;;;;;;;;;;;;20.62;54.91;100511.19;4977458;28;1051;-36
2022/08/11 16:32:17;;;;;;;;;;;;;;;22.68;49.22;100519.88;4976823;28;1898;-37
2022/08/11 16:40:24;;;;;;;;;;;;;;;22.76;49.16;100513.72;4975788;28;1115;-34
2022/08/11 16:48:17;;;;;;;;;;;;;;;23.67;46.10;100518.59;4969273;28;893;-35
2022/08/11 16:50:43;;;;;;;;;;;;;;;22.78;49.07;100518.91;4959374;28;2066;-35
2022/08/11 16:53:08;;;;;;;;;;;;;;;22.70;49.53;100515.22;4970214;28;1134;-33
2022/08/11 16:55:33;;;;;;;;;;;;;;;22.54;50.02;100510.53;4976926;28;1051;-34
2022/08/11 17:00:43;;;;;;;;;;;;;;;22.35;50.98;100523.16;4976459;28;1038;-35
2022/08/11 17:14:12;;;;;;;;;;;;;;;21.97;50.01;100519.84;4969143;28;916;-36
2022/08/11 17:16:40;;;;;;;;;;;;;;;19.90;56.63;100517.72;4970010;28;1063;-36
2022/08/11 17:19:07;;;;;;;;;;;;;;;19.56;57.94;100520.78;4959865;28;1838;-35
2022/08/11 17:21:35;;;;;;;;;;;;;;;19.52;58.51;100522.88;4976904;28;1070;-36
2022/08/11 17:24:05;;;;;;;;;;;;;;;20.78;56.86;100525.78;4972026;28;999;-35
2022/08/11 17:27:16;;;;;;;;;;;;;;;23.33;48.70;100531.06;4976462;28;877;-36
2022/08/11 17:29:20;;;;;;;;;;;;;;;19.95;56.23;100528.00;4963215;28;1395;-36
2022/08/11 17:37:13;;;;;;;;;;;;;;;19.55;60.07;100525.25;4978690;28;912;-35
2022/08/11 17:39:39;;;;;;;;;;;;;;;19.68;59.78;100532.19;4972712;28;1106;-35
2022/08/11 17:50:16;;;;;;;;;;;;;;;19.61;59.64;100537.22;4964639;28;2342;-36
2022/08/11 18:00:53;;;;;;;;;;;;;;;20.01;62.57;100545.28;4975492;28;1019;-39
2022/08/11 18:03:28;;;;;;;;;;;;;;;22.89;50.76;100547.31;4979750;28;1102;-40
2022/08/11 18:05:53;;;;;;;;;;;;;;;20.54;54.03;100544.00;4980169;28;1094;-40
